Time;durP1;ratioP1;P1;durP2;ratioP2;P2;SDS_P1;SDS_P2;PMS_P1;PMS_P2;Temp;Humidity;BMP_temperature;BMP_pressure;BME280_temperature;BME280_humidity;BME280_pressure;Samples;Min_cycle;Max_cycle;Signal;HPM_P1;HPM_P2
2023/04/06 00:01:27;;;;;;;3.95;3.65;;;16.20;40.60;;;;;;5039101;28;20574;-78
2023/04/06 00:03:54;;;;;;;4.20;3.75;;;16.20;40.50;;;;;;5039908;28;20734;-78
2023/04/06 00:06:23;;;;;;;4.22;3.83;;;16.20;40.80;;;;;;5041676;28;20215;-78
2023/04/06 00:08:50;;;;;;;4.20;3.50;;;16.20;40.60;;;;;;5039536;28;20199;-78
2023/04/06 00:11:17;;;;;;;4.18;3.78;;;16.20;40.70;;;;;;5040535;28;20195;-78
2023/04/06 00:13:45;;;;;;;3.72;3.42;;;16.10;40.60;;;;;;5038967;28;20249;-78
2023/04/06 00:16:13;;;;;;;4.13;3.80;;;16.20;40.80;;;;;;5038712;28;20269;-78
2023/04/06 00:18:40;;;;;;;4.78;3.80;;;16.10;40.80;;;;;;5039056;28;20199;-78
2023/04/06 00:23:35;;;;;;;4.20;3.80;;;16.10;40.90;;;;;;4958778;28;20309;-82
2023/04/06 00:26:03;;;;;;;4.30;3.95;;;16.10;40.80;;;;;;4978741;28;20209;-82
2023/04/06 00:28:31;;;;;;;4.38;4.00;;;16.10;40.90;;;;;;4979457;28;20233;-82
2023/04/06 00:30:58;;;;;;;5.50;4.07;;;16.00;40.80;;;;;;4995678;28;20607;-82
2023/04/06 00:33:25;;;;;;;4.00;3.60;;;16.00;40.80;;;;;;4979942;28;20202;-82
2023/04/06 00:35:53;;;;;;;4.28;3.88;;;16.00;40.90;;;;;;4979630;28;20296;-82
2023/04/06 00:38:20;;;;;;;4.72;4.25;;;16.00;40.90;;;;;;4996515;28;20197;-82
2023/04/06 00:40:49;;;;;;;4.60;4.20;;;16.00;41.00;;;;;;5018713;28;20193;-82
2023/04/06 00:43:16;;;;;;;4.45;4.05;;;16.00;40.90;;;;;;5016171;28;20198;-82
2023/04/06 00:45:45;;;;;;;4.40;4.00;;;15.90;41.00;;;;;;4994586;28;20221;-82
2023/04/06 00:48:13;;;;;;;4.72;4.30;;;15.90;41.00;;;;;;5015420;28;20277;-82
2023/04/06 00:50:40;;;;;;;4.75;4.35;;;15.90;40.90;;;;;;5002892;28;20188;-82
2023/04/06 00:53:07;;;;;;;4.40;4.00;;;15.90;41.00;;;;;;4997186;28;20205;-82
2023/04/06 00:55:35;;;;;;;5.00;4.50;;;15.90;41.00;;;;;;5001012;28;20217;-82
2023/04/06 00:58:05;;;;;;;4.63;4.22;;;15.90;41.00;;;;;;4981552;28;20217;-82
2023/04/06 01:00:39;;;;;;;4.80;4.30;;;15.80;41.00;;;;;;4995888;28;20228;-81
2023/04/06 01:03:07;;;;;;;4.50;4.20;;;15.80;40.90;;;;;;4979321;28;20238;-81
2023/04/06 01:05:40;;;;;;;4.53;3.72;;;15.80;41.00;;;;;;4980472;28;20643;-82
2023/04/06 01:08:12;;;;;;;4.70;4.22;;;15.80;41.00;;;;;;4995907;28;20660;-82
2023/04/06 01:10:40;;;;;;;5.43;4.32;;;15.80;40.90;;;;;;4978726;28;20201;-82
2023/04/06 01:13:22;;;;;;;4.82;4.07;;;15.80;40.90;;;;;;4979824;28;20685;-81
2023/04/06 01:16:12;;;;;;;4.40;4.00;;;15.70;40.90;;;;;;4982398;28;20304;-82
2023/04/06 01:18:49;;;;;;;5.40;4.13;;;15.80;41.10;;;;;;4978850;28;20205;-82
2023/04/06 01:21:21;;;;;;;4.55;4.15;;;15.70;40.90;;;;;;4979450;28;20186;-82
2023/04/06 01:24:09;;;;;;;4.43;4.03;;;15.70;40.90;;;;;;4996043;28;20274;-82
2023/04/06 01:27:06;;;;;;;4.70;4.30;;;15.70;40.90;;;;;;4988689;28;20241;-82
2023/04/06 01:29:52;;;;;;;4.43;4.03;;;15.70;41.00;;;;;;4979468;28;20580;-82
2023/04/06 01:32:36;;;;;;;4.68;4.28;;;15.70;41.00;;;;;;4995383;28;20662;-82
2023/04/06 01:35:03;;;;;;;4.68;4.28;;;15.60;40.80;;;;;;4994589;28;20676;-82
2023/04/06 01:37:33;;;;;;;5.03;4.53;;;15.70;41.00;;;;;;4978362;28;20217;-82
2023/04/06 01:40:07;;;;;;;4.30;3.90;;;15.70;41.00;;;;;;4978226;28;20190;-82
2023/04/06 01:42:49;;;;;;;5.75;4.60;;;15.60;40.90;;;;;;4996127;28;20214;-82
2023/04/06 01:45:23;;;;;;;4.03;3.67;;;15.60;40.70;;;;;;4995422;28;20189;-82
2023/04/06 01:47:54;;;;;;;4.10;3.80;;;15.60;40.80;;;;;;4980525;28;20217;-82
2023/04/06 01:50:25;;;;;;;4.93;4.50;;;15.60;40.90;;;;;;4994241;28;20190;-82
2023/04/06 01:52:52;;;;;;;4.63;4.22;;;15.60;40.80;;;;;;5011169;28;20231;-82
2023/04/06 01:55:21;;;;;;;4.32;3.97;;;15.60;40.90;;;;;;4994618;28;20217;-82
2023/04/06 01:58:16;;;;;;;4.88;4.43;;;15.50;40.80;;;;;;4978539;28;20293;-82
2023/04/06 02:00:43;;;;;;;4.57;4.18;;;15.50;41.00;;;;;;4977924;28;20197;-82
2023/04/06 02:03:11;;;;;;;5.15;4.72;;;15.50;41.00;;;;;;4995231;28;20288;-82
2023/04/06 02:05:39;;;;;;;4.70;4.30;;;15.50;40.90;;;;;;4995361;28;20215;-82
2023/04/06 02:08:21;;;;;;;4.97;4.32;;;15.50;41.00;;;;;;4964600;28;20197;-82
2023/04/06 02:10:50;;;;;;;4.90;4.40;;;15.50;40.90;;;;;;4979063;28;20194;-82
2023/04/06 02:13:27;;;;;;;5.18;4.68;;;15.50;40.90;;;;;;4977869;28;20189;-81
2023/04/06 02:15:55;;;;;;;4.95;4.50;;;15.50;40.90;;;;;;4977540;28;20225;-81
2023/04/06 02:18:22;;;;;;;4.50;4.10;;;15.40;41.00;;;;;;4977638;28;20727;-81
2023/04/06 02:20:50;;;;;;;4.63;4.22;;;15.40;41.10;;;;;;4977438;28;20764;-81
2023/04/06 02:23:17;;;;;;;4.50;4.10;;;15.40;41.00;;;;;;4978972;28;20200;-81
2023/04/06 02:25:44;;;;;;;4.72;4.32;;;15.40;41.00;;;;;;4998359;28;20228;-82
2023/04/06 02:28:13;;;;;;;4.95;4.45;;;15.40;41.20;;;;;;4981531;28;20248;-83
2023/04/06 02:30:40;;;;;;;4.75;4.35;;;15.40;41.10;;;;;;4981349;28;20201;-82
2023/04/06 02:33:07;;;;;;;5.15;4.65;;;15.40;41.20;;;;;;4999134;28;20200;-82
2023/04/06 02:35:42;;;;;;;5.65;4.90;;;15.30;41.20;;;;;;4981416;28;20217;-82
2023/04/06 02:38:10;;;;;;;5.07;4.57;;;15.40;41.10;;;;;;4981526;28;20323;-82
2023/04/06 02:40:37;;;;;;;5.13;4.70;;;15.30;41.00;;;;;;4965511;28;20193;-82
2023/04/06 02:43:18;;;;;;;5.53;4.45;;;15.30;41.00;;;;;;4981241;28;20201;-81
2023/04/06 02:45:46;;;;;;;5.13;4.65;;;15.30;41.10;;;;;;4981199;28;20276;-82
2023/04/06 02:48:15;;;;;;;4.95;4.55;;;15.30;41.20;;;;;;4981010;28;20201;-82
2023/04/06 02:50:42;;;;;;;5.05;4.65;;;15.30;41.20;;;;;;4980949;28;20212;-82
2023/04/06 02:53:09;;;;;;;5.47;4.10;;;15.30;41.20;;;;;;4981623;28;20256;-82
2023/04/06 02:55:38;;;;;;;4.65;4.25;;;15.30;41.10;;;;;;4980912;28;20213;-81
2023/04/06 02:58:06;;;;;;;4.85;4.45;;;15.30;41.10;;;;;;4980889;28;20695;-81
2023/04/06 03:00:45;;;;;;;4.60;4.20;;;15.30;41.10;;;;;;4980854;28;20189;-81
2023/04/06 03:03:12;;;;;;;4.68;4.28;;;15.30;41.40;;;;;;4997583;28;20207;-81
2023/04/06 03:05:40;;;;;;;5.13;4.70;;;15.20;41.10;;;;;;4967650;28;20197;-81
2023/04/06 03:08:08;;;;;;;4.97;4.47;;;15.20;41.10;;;;;;4983912;28;20221;-82
2023/04/06 03:10:44;;;;;;;5.10;4.50;;;15.30;41.10;;;;;;4986797;28;20189;-82
2023/04/06 03:13:12;;;;;;;5.43;4.75;;;15.20;41.00;;;;;;5002684;28;20232;-82
2023/04/06 03:15:56;;;;;;;5.20;4.70;;;15.20;41.10;;;;;;5012420;28;20205;-82
2023/04/06 03:18:24;;;;;;;4.75;4.35;;;15.20;41.20;;;;;;5002017;28;20209;-82
2023/04/06 03:20:53;;;;;;;5.13;4.63;;;15.20;41.30;;;;;;4998233;28;20201;-82
2023/04/06 03:23:21;;;;;;;4.80;4.28;;;15.20;41.40;;;;;;4977572;28;20232;-82
2023/04/06 03:25:52;;;;;;;5.15;4.65;;;15.20;41.90;;;;;;5007230;28;20189;-82
2023/04/06 03:28:21;;;;;;;5.03;4.60;;;15.20;42.00;;;;;;5007377;28;20272;-82
2023/04/06 03:30:57;;;;;;;4.38;3.97;;;15.20;42.00;;;;;;4990295;28;20185;-82
2023/04/06 03:33:39;;;;;;;5.32;4.82;;;15.20;42.00;;;;;;4991336;28;20201;-82
2023/04/06 03:36:09;;;;;;;5.22;4.38;;;15.20;42.40;;;;;;4993690;28;20221;-82
2023/04/06 03:38:40;;;;;;;5.03;4.43;;;15.20;42.50;;;;;;4993869;28;20273;-82
2023/04/06 03:41:12;;;;;;;5.43;4.85;;;15.20;42.50;;;;;;4992346;28;20221;-82
2023/04/06 03:43:41;;;;;;;4.90;4.50;;;15.20;42.50;;;;;;4995347;28;20209;-82
2023/04/06 03:46:10;;;;;;;4.57;4.18;;;15.20;42.30;;;;;;4993017;28;20217;-82
2023/04/06 03:48:37;;;;;;;5.75;4.40;;;15.20;42.20;;;;;;4992992;28;20205;-82
2023/04/06 03:51:07;;;;;;;4.35;3.95;;;15.20;42.20;;;;;;4994683;28;20284;-82
2023/04/06 03:53:36;;;;;;;5.13;4.57;;;15.20;42.00;;;;;;4991588;28;20211;-82
2023/04/06 03:56:04;;;;;;;5.03;4.60;;;15.20;42.00;;;;;;4982497;28;20220;-82
2023/04/06 03:58:32;;;;;;;4.47;4.07;;;15.20;41.90;;;;;;4980421;28;20539;-83
2023/04/06 04:00:59;;;;;;;4.53;4.13;;;15.10;41.90;;;;;;4983297;28;20289;-82
2023/04/06 04:03:29;;;;;;;4.57;4.10;;;15.20;41.80;;;;;;4985653;28;20197;-83
2023/04/06 04:05:56;;;;;;;4.05;3.75;;;15.20;41.80;;;;;;4985434;28;20197;-82
2023/04/06 04:08:25;;;;;;;4.82;4.43;;;15.20;41.60;;;;;;5002957;28;20224;-82
2023/04/06 04:10:53;;;;;;;4.93;4.40;;;15.20;41.20;;;;;;4988408;28;20205;-82
2023/04/06 04:13:20;;;;;;;4.82;4.43;;;15.30;41.30;;;;;;4985118;28;20272;-83
2023/04/06 04:15:49;;;;;;;4.57;4.18;;;15.30;41.10;;;;;;4983831;28;20217;-83
2023/04/06 04:18:16;;;;;;;4.55;4.15;;;15.30;41.10;;;;;;4981538;28;20232;-83
2023/04/06 04:20:45;;;;;;;4.85;4.45;;;15.30;41.00;;;;;;4981735;28;20251;-82
2023/04/06 04:23:14;;;;;;;4.55;4.15;;;15.30;40.70;;;;;;4981001;28;20205;-83
2023/04/06 04:25:42;;;;;;;4.53;4.13;;;15.40;40.80;;;;;;4980178;28;20688;-83
2023/04/06 04:28:30;;;;;;;4.75;4.35;;;15.40;41.60;;;;;;4997174;28;20184;-83
2023/04/06 04:30:59;;;;;;;4.45;4.05;;;15.40;40.70;;;;;;4980453;28;20197;-83
2023/04/06 04:33:27;;;;;;;4.80;4.40;;;15.40;40.60;;;;;;4980692;28;20292;-82
2023/04/06 04:35:58;;;;;;;4.82;4.43;;;15.50;40.70;;;;;;4979856;28;20332;-82
2023/04/06 04:38:31;;;;;;;4.47;4.00;;;15.40;40.80;;;;;;5000183;28;20255;-82
2023/04/06 04:40:58;;;;;;;5.22;4.55;;;15.50;40.70;;;;;;4988906;28;20614;-81
2023/04/06 04:43:28;;;;;;;4.95;4.45;;;15.50;41.00;;;;;;5001505;28;20229;-83
2023/04/06 04:45:55;;;;;;;4.88;4.43;;;15.50;40.90;;;;;;4999348;28;20198;-83
2023/04/06 04:48:40;;;;;;;4.22;3.90;;;15.50;40.70;;;;;;4979786;28;20293;-82
2023/04/06 04:51:09;;;;;;;4.38;3.97;;;15.60;41.00;;;;;;4980313;28;20231;-83
2023/04/06 04:53:57;;;;;;;4.45;4.05;;;15.70;41.10;;;;;;4975987;28;20213;-83
2023/04/06 04:56:29;;;;;;;4.57;4.18;;;15.60;40.40;;;;;;4979579;28;20267;-83
2023/04/06 04:59:04;;;;;;;4.47;4.07;;;15.60;41.00;;;;;;4980041;28;20193;-82
2023/04/06 05:01:35;;;;;;;4.70;4.30;;;15.70;40.70;;;;;;4997726;28;20251;-82
2023/04/06 05:04:03;;;;;;;4.28;3.97;;;15.70;40.70;;;;;;4996928;28;20224;-83
2023/04/06 05:06:32;;;;;;;5.20;4.70;;;15.70;40.50;;;;;;4980766;28;20276;-79
2023/04/06 05:08:59;;;;;;;5.00;4.60;;;15.70;40.40;;;;;;4996749;28;20201;-79
2023/04/06 05:11:27;;;;;;;4.70;4.30;;;15.80;40.70;;;;;;4978342;28;20193;-78
2023/04/06 05:14:00;;;;;;;5.20;4.70;;;15.80;40.50;;;;;;4994001;28;20555;-78
2023/04/06 05:16:27;;;;;;;5.30;4.80;;;15.90;40.30;;;;;;4977920;28;20272;-78
2023/04/06 05:18:56;;;;;;;5.18;4.55;;;15.90;39.50;;;;;;4993918;28;20717;-77
2023/04/06 05:21:27;;;;;;;4.70;4.30;;;15.90;39.60;;;;;;4994640;28;20205;-77
2023/04/06 05:24:02;;;;;;;5.35;4.13;;;15.90;39.70;;;;;;4977824;28;20201;-77
2023/04/06 05:26:31;;;;;;;5.22;4.72;;;15.90;39.80;;;;;;4977886;28;20240;-77
2023/04/06 05:29:04;;;;;;;5.97;4.68;;;15.90;40.50;;;;;;4978127;28;20267;-77
2023/04/06 05:31:34;;;;;;;4.53;4.13;;;15.90;40.20;;;;;;4978438;28;20205;-78
2023/04/06 05:34:02;;;;;;;6.43;5.07;;;15.90;40.40;;;;;;4977728;28;20256;-78
2023/04/06 05:36:33;;;;;;;4.85;4.35;;;15.90;40.10;;;;;;4979112;28;20221;-78
2023/04/06 05:39:12;;;;;;;4.85;4.40;;;16.00;41.00;;;;;;4979713;28;20198;-79
2023/04/06 05:41:44;;;;;;;4.70;4.30;;;16.00;40.40;;;;;;4994856;28;20193;-79
2023/04/06 05:44:14;;;;;;;4.55;4.20;;;16.10;40.20;;;;;;4977814;28;20190;-78
2023/04/06 05:46:45;;;;;;;4.60;4.20;;;16.20;40.50;;;;;;4963860;28;20275;-79
2023/04/06 05:49:15;;;;;;;4.55;4.00;;;16.30;40.50;;;;;;4978905;28;20204;-79
2023/04/06 05:51:42;;;;;;;4.53;4.13;;;16.50;40.40;;;;;;4977863;28;20201;-79
2023/04/06 05:54:11;;;;;;;4.53;4.13;;;16.70;39.80;;;;;;4978464;28;20673;-79
2023/04/06 05:56:38;;;;;;;4.05;3.75;;;16.90;39.90;;;;;;4978945;28;20229;-79
2023/04/06 05:59:06;;;;;;;4.53;4.13;;;17.20;39.70;;;;;;4978756;28;20578;-79
2023/04/06 06:01:34;;;;;;;4.68;4.28;;;17.30;39.30;;;;;;4994681;28;20251;-79
2023/04/06 06:04:03;;;;;;;4.40;4.00;;;17.40;39.10;;;;;;4995229;28;20220;-80
2023/04/06 06:06:34;;;;;;;4.35;3.90;;;17.60;38.80;;;;;;4998953;28;20221;-79
2023/04/06 06:09:35;;;;;;;5.05;4.60;;;17.70;38.40;;;;;;4996764;28;20257;-79
2023/04/06 06:12:16;;;;;;;4.10;3.72;;;17.80;38.00;;;;;;4977981;28;20343;-79
2023/04/06 06:14:44;;;;;;;4.53;4.13;;;18.00;38.00;;;;;;4977530;28;20288;-78
2023/04/06 06:17:11;;;;;;;4.00;3.60;;;18.00;37.70;;;;;;4977212;28;20257;-78
2023/04/06 06:19:38;;;;;;;4.47;4.07;;;18.00;37.60;;;;;;4995953;28;20224;-79
2023/04/06 06:22:08;;;;;;;5.22;4.50;;;18.00;37.60;;;;;;5084174;22;20635;-81
2023/04/06 06:24:43;;;;;;;5.35;4.30;;;18.00;37.60;;;;;;5036440;28;20191;-79
2023/04/06 06:27:11;;;;;;;5.03;4.43;;;18.00;37.40;;;;;;5036813;28;20219;-79
2023/04/06 06:29:40;;;;;;;3.97;3.67;;;18.10;37.60;;;;;;5036558;28;20191;-79
2023/04/06 06:32:08;;;;;;;4.97;4.47;;;18.20;37.40;;;;;;5020439;28;20253;-80
2023/04/06 06:34:36;;;;;;;4.65;4.22;;;18.40;37.20;;;;;;5036867;28;20257;-79
2023/04/06 06:37:07;;;;;;;4.50;4.10;;;18.60;37.10;;;;;;5038410;28;20223;-79
2023/04/06 06:39:34;;;;;;;5.45;4.35;;;18.70;36.80;;;;;;5038970;28;20201;-79
2023/04/06 06:42:05;;;;;;;4.50;4.10;;;18.90;36.30;;;;;;5038543;28;20653;-79
2023/04/06 06:44:52;;;;;;;5.10;4.47;;;19.10;36.10;;;;;;5038746;28;20217;-79
2023/04/06 06:47:19;;;;;;;7.28;4.55;;;19.20;36.10;;;;;;5036225;28;20239;-79
2023/04/06 06:49:47;;;;;;;4.80;3.88;;;19.40;36.10;;;;;;5036371;28;20571;-79
2023/04/06 06:52:14;;;;;;;5.60;4.53;;;19.50;36.00;;;;;;5036373;28;20538;-79
2023/04/06 06:54:41;;;;;;;5.45;4.55;;;19.60;35.70;;;;;;5036873;28;20553;-79
2023/04/06 06:57:10;;;;;;;5.03;4.53;;;19.70;35.80;;;;;;5036193;28;20230;-79
2023/04/06 06:59:38;;;;;;;6.95;5.30;;;19.80;35.80;;;;;;5054376;28;20188;-79
2023/04/06 07:02:06;;;;;;;4.95;4.55;;;19.90;35.50;;;;;;5037422;28;20206;-79
2023/04/06 07:04:34;;;;;;;5.47;4.40;;;20.00;35.30;;;;;;5036926;28;20234;-79
2023/04/06 07:07:03;;;;;;;4.80;4.40;;;20.10;35.20;;;;;;5036831;28;20219;-79
2023/04/06 07:09:30;;;;;;;6.20;4.70;;;20.20;35.10;;;;;;5021966;28;20191;-78
2023/04/06 07:12:00;;;;;;;6.40;4.75;;;20.30;35.10;;;;;;5059105;28;20242;-78
2023/04/06 07:14:29;;;;;;;4.88;4.10;;;20.40;35.00;;;;;;5041364;28;20678;-79
2023/04/06 07:16:56;;;;;;;6.45;4.90;;;20.40;35.00;;;;;;5040918;28;20219;-79
2023/04/06 07:19:24;;;;;;;4.93;4.53;;;20.50;34.80;;;;;;5041397;28;20199;-78
2023/04/06 07:21:51;;;;;;;5.00;4.60;;;20.60;34.80;;;;;;5024799;28;20727;-79
2023/04/06 07:24:20;;;;;;;5.15;4.72;;;20.60;35.30;;;;;;5040501;28;20612;-79
2023/04/06 07:26:47;;;;;;;6.50;4.85;;;20.70;34.80;;;;;;5040291;28;20737;-79
2023/04/06 07:29:14;;;;;;;5.60;5.10;;;20.80;34.50;;;;;;5040160;28;20286;-79
2023/04/06 07:31:43;;;;;;;5.57;5.07;;;20.80;34.50;;;;;;5041286;28;20436;-78
2023/04/06 07:34:10;;;;;;;4.90;4.40;;;20.90;34.30;;;;;;5040009;28;20188;-79
2023/04/06 07:36:39;;;;;;;5.57;4.75;;;21.00;34.30;;;;;;5039950;28;20302;-80
2023/04/06 07:39:07;;;;;;;5.03;4.50;;;21.10;34.50;;;;;;5039568;28;20203;-79
2023/04/06 07:41:36;;;;;;;5.55;5.07;;;21.10;34.20;;;;;;5039800;28;20223;-79
2023/04/06 07:44:04;;;;;;;5.10;4.60;;;21.10;34.00;;;;;;5040030;28;20192;-79
2023/04/06 07:46:32;;;;;;;4.78;4.30;;;21.20;34.20;;;;;;5039760;28;20211;-79
2023/04/06 07:49:01;;;;;;;4.53;4.13;;;21.30;34.00;;;;;;5039675;28;20199;-79
2023/04/06 07:51:31;;;;;;;4.40;4.00;;;21.30;33.90;;;;;;5039614;28;20192;-79
2023/04/06 07:53:59;;;;;;;4.20;3.80;;;21.30;34.00;;;;;;5040686;28;20191;-79
2023/04/06 07:56:27;;;;;;;4.53;4.13;;;21.40;33.90;;;;;;5040057;28;20233;-79
2023/04/06 07:58:56;;;;;;;4.20;3.80;;;21.50;33.80;;;;;;5040585;28;20360;-79
2023/04/06 08:01:23;;;;;;;4.47;4.07;;;21.60;34.00;;;;;;5040031;28;20220;-79
2023/04/06 08:03:51;;;;;;;4.72;4.18;;;21.60;33.90;;;;;;5040313;28;20286;-78
2023/04/06 08:06:20;;;;;;;4.20;3.80;;;21.70;33.70;;;;;;5040431;28;20635;-78
2023/04/06 08:08:47;;;;;;;4.57;4.18;;;21.70;33.70;;;;;;5041738;28;20206;-79
2023/04/06 08:11:14;;;;;;;4.20;3.83;;;21.80;33.50;;;;;;5042083;28;20246;-79
2023/04/06 08:13:41;;;;;;;4.28;3.97;;;21.80;33.40;;;;;;5041866;28;20699;-79
2023/04/06 08:16:09;;;;;;;4.80;4.10;;;21.90;33.50;;;;;;5040970;28;20223;-79
2023/04/06 08:18:36;;;;;;;4.28;3.88;;;22.00;33.40;;;;;;5041293;28;20238;-79
2023/04/06 08:21:04;;;;;;;4.22;3.83;;;22.00;33.30;;;;;;5040222;28;20214;-79
2023/04/06 08:23:33;;;;;;;4.57;4.05;;;22.00;33.10;;;;;;5042505;28;20203;-79
2023/04/06 08:26:00;;;;;;;4.10;3.70;;;22.10;33.20;;;;;;5040149;28;20195;-79
2023/04/06 08:28:27;;;;;;;3.70;3.40;;;22.10;33.00;;;;;;5039896;28;20673;-79
2023/04/06 08:30:55;;;;;;;4.30;3.95;;;22.20;33.00;;;;;;5025079;28;20223;-79
2023/04/06 08:33:22;;;;;;;4.13;3.72;;;22.30;33.10;;;;;;5041067;28;20203;-79
2023/04/06 08:35:50;;;;;;;4.28;3.88;;;22.30;32.90;;;;;;5040561;28;20201;-79
2023/04/06 08:38:17;;;;;;;3.85;3.45;;;22.40;32.90;;;;;;5039247;28;20673;-77
2023/04/06 08:40:47;;;;;;;4.00;3.60;;;22.40;32.80;;;;;;5041875;28;20218;-78
2023/04/06 08:43:15;;;;;;;4.00;3.60;;;22.50;33.00;;;;;;5045232;28;20202;-78
2023/04/06 08:45:43;;;;;;;4.00;3.60;;;22.50;32.80;;;;;;5038972;28;20599;-78
2023/04/06 08:48:11;;;;;;;3.95;3.60;;;22.60;32.80;;;;;;5038024;28;20708;-78
2023/04/06 08:50:39;;;;;;;4.07;3.78;;;22.60;32.70;;;;;;5038312;28;20735;-78
2023/04/06 08:53:06;;;;;;;4.00;3.70;;;22.60;32.60;;;;;;5038138;28;20294;-78
2023/04/06 08:55:34;;;;;;;4.10;3.72;;;22.60;32.60;;;;;;5038206;28;20203;-78
2023/04/06 08:58:03;;;;;;;4.10;3.70;;;22.70;32.70;;;;;;5038501;28;20227;-78
2023/04/06 09:00:32;;;;;;;3.53;3.22;;;22.70;32.60;;;;;;5037816;28;20192;-78
2023/04/06 09:03:00;;;;;;;3.50;3.20;;;22.70;32.50;;;;;;5038585;28;20187;-78
2023/04/06 09:05:27;;;;;;;4.20;3.78;;;22.80;32.50;;;;;;5038260;28;20200;-78
2023/04/06 09:07:56;;;;;;;3.75;3.45;;;22.80;32.50;;;;;;5037921;28;20238;-79
2023/04/06 09:10:25;;;;;;;3.10;2.90;;;22.80;32.50;;;;;;5038081;28;20241;-78
2023/04/06 09:12:52;;;;;;;3.35;3.05;;;22.90;32.50;;;;;;5056410;28;20666;-79
2023/04/06 09:15:21;;;;;;;3.35;3.15;;;22.90;32.30;;;;;;5037193;28;20205;-78
2023/04/06 09:17:49;;;;;;;3.38;3.08;;;22.90;32.40;;;;;;5021874;28;20231;-78
2023/04/06 09:20:16;;;;;;;3.97;3.58;;;22.90;32.40;;;;;;5038245;28;20585;-78
2023/04/06 09:22:44;;;;;;;3.42;3.13;;;23.00;32.50;;;;;;5036863;28;20203;-78
2023/04/06 09:25:18;;;;;;;4.00;2.90;;;23.00;32.50;;;;;;5021398;28;20538;-78
2023/04/06 09:27:45;;;;;;;3.85;3.45;;;22.90;32.20;;;;;;5037262;28;20222;-78
2023/04/06 09:30:15;;;;;;;3.55;3.25;;;23.00;32.40;;;;;;5055456;28;20260;-78
2023/04/06 09:32:51;;;;;;;3.72;3.38;;;23.00;32.20;;;;;;5055166;28;20192;-78
2023/04/06 09:35:19;;;;;;;3.28;3.00;;;23.10;32.30;;;;;;5037238;28;20191;-78
2023/04/06 09:37:47;;;;;;;3.60;3.30;;;23.00;32.20;;;;;;5037015;28;20219;-78
2023/04/06 09:40:17;;;;;;;3.45;3.15;;;23.00;32.40;;;;;;5037555;28;20203;-78
2023/04/06 09:42:46;;;;;;;3.30;3.00;;;23.10;32.40;;;;;;5037635;28;20257;-78
2023/04/06 09:45:13;;;;;;;3.53;3.22;;;23.10;32.30;;;;;;5038217;28;20199;-78
2023/04/06 09:47:42;;;;;;;3.63;3.30;;;23.10;32.50;;;;;;5037485;28;20212;-78
2023/04/06 09:50:11;;;;;;;3.55;3.25;;;23.00;32.40;;;;;;5021142;28;20346;-78
2023/04/06 09:52:41;;;;;;;3.60;3.30;;;23.00;32.20;;;;;;5037698;28;20210;-78
2023/04/06 09:55:08;;;;;;;4.32;2.97;;;23.10;32.50;;;;;;5039027;28;20207;-78
2023/04/06 09:57:38;;;;;;;3.63;3.33;;;23.00;32.40;;;;;;5022260;28;20269;-78
2023/04/06 10:00:09;;;;;;;3.30;3.00;;;23.00;32.50;;;;;;5037889;28;20203;-78
2023/04/06 10:02:41;;;;;;;3.58;3.00;;;23.00;32.50;;;;;;5038690;28;20195;-78
2023/04/06 10:05:13;;;;;;;3.75;3.38;;;23.00;32.60;;;;;;5055065;28;20563;-78
2023/04/06 10:07:41;;;;;;;2.92;2.55;;;23.00;32.60;;;;;;5037434;28;20241;-78
2023/04/06 10:10:09;;;;;;;3.40;3.10;;;22.90;32.60;;;;;;5037853;28;20203;-78
2023/04/06 10:12:37;;;;;;;4.00;3.00;;;22.90;32.70;;;;;;5038525;28;20195;-78
2023/04/06 10:15:05;;;;;;;3.03;2.70;;;22.90;32.70;;;;;;5021519;28;20249;-78
2023/04/06 10:17:32;;;;;;;3.05;2.75;;;22.90;32.60;;;;;;5037788;28;20215;-78
2023/04/06 10:20:03;;;;;;;3.17;2.75;;;22.90;32.60;;;;;;5026273;28;20203;-78
2023/04/06 10:22:35;;;;;;;3.17;2.97;;;22.90;32.70;;;;;;5037689;28;20203;-78
2023/04/06 10:25:02;;;;;;;3.17;2.80;;;22.90;32.70;;;;;;5055660;28;20287;-78
2023/04/06 10:27:30;;;;;;;3.08;2.80;;;22.80;32.60;;;;;;5037825;28;20322;-78
2023/04/06 10:30:02;;;;;;;3.08;2.88;;;22.90;32.80;;;;;;5022448;28;20195;-78
2023/04/06 10:32:35;;;;;;;2.88;2.67;;;22.80;32.70;;;;;;5036606;28;20278;-78
2023/04/06 10:35:09;;;;;;;3.22;2.92;;;22.80;33.30;;;;;;5036560;28;20199;-78
2023/04/06 10:37:52;;;;;;;3.35;2.63;;;22.80;32.70;;;;;;5036153;28;20241;-78
2023/04/06 10:40:24;;;;;;;2.97;2.78;;;22.80;32.70;;;;;;5036251;28;20294;-78
2023/04/06 10:42:51;;;;;;;3.00;2.70;;;22.80;32.80;;;;;;5036238;28;20279;-78
2023/04/06 10:45:23;;;;;;;3.10;2.80;;;22.70;32.70;;;;;;5039451;28;20257;-78
2023/04/06 10:47:53;;;;;;;3.15;2.92;;;22.70;32.80;;;;;;5040391;28;20208;-78
2023/04/06 10:50:21;;;;;;;2.90;2.70;;;22.70;32.80;;;;;;5040174;28;20246;-78
2023/04/06 10:52:48;;;;;;;3.30;3.00;;;22.70;32.90;;;;;;5057956;28;20190;-78
2023/04/06 10:55:17;;;;;;;3.90;2.70;;;22.60;32.80;;;;;;5040014;28;20227;-78
2023/04/06 10:57:44;;;;;;;3.00;2.75;;;22.60;33.00;;;;;;5057606;28;20211;-78
2023/04/06 11:00:13;;;;;;;2.85;2.65;;;22.60;33.10;;;;;;5039393;28;20205;-79
2023/04/06 11:02:41;;;;;;;3.17;2.88;;;22.50;33.00;;;;;;5039857;28;20230;-78
2023/04/06 11:05:09;;;;;;;3.10;2.80;;;22.50;33.10;;;;;;5039753;28;20195;-78
2023/04/06 11:07:38;;;;;;;3.28;2.97;;;22.50;33.20;;;;;;5039966;28;20235;-78
2023/04/06 11:10:06;;;;;;;3.45;2.75;;;22.50;33.20;;;;;;5023679;28;20205;-79
2023/04/06 11:12:35;;;;;;;3.00;2.72;;;22.40;33.20;;;;;;5039884;28;20677;-78
2023/04/06 11:15:05;;;;;;;3.53;2.78;;;22.40;33.40;;;;;;5040639;28;20204;-78
2023/04/06 11:17:34;;;;;;;3.00;2.70;;;22.40;33.40;;;;;;5023294;28;20219;-77
2023/04/06 11:20:01;;;;;;;2.70;2.50;;;22.40;33.40;;;;;;5039566;28;20226;-77
2023/04/06 11:22:29;;;;;;;2.72;2.53;;;22.40;33.40;;;;;;5040001;28;20254;-77
2023/04/06 11:25:06;;;;;;;2.70;2.50;;;22.40;33.60;;;;;;5022969;28;20199;-77
2023/04/06 11:27:36;;;;;;;2.90;2.70;;;22.30;33.50;;;;;;5039292;28;20309;-77
2023/04/06 11:30:04;;;;;;;2.83;2.63;;;22.30;33.60;;;;;;5039550;28;20201;-77
2023/04/06 11:32:40;;;;;;;2.88;2.55;;;22.30;33.70;;;;;;5039092;28;20202;-77
2023/04/06 11:35:08;;;;;;;2.80;2.60;;;22.30;33.70;;;;;;5039333;28;20693;-77
2023/04/06 11:37:35;;;;;;;2.47;2.30;;;22.30;33.80;;;;;;5038933;28;20223;-77
2023/04/06 11:40:03;;;;;;;2.88;2.67;;;22.30;34.40;;;;;;5039037;28;20200;-77
2023/04/06 11:42:30;;;;;;;2.63;2.42;;;22.30;33.90;;;;;;5039401;28;20196;-77
2023/04/06 11:44:59;;;;;;;2.90;2.60;;;22.20;33.70;;;;;;5039280;28;20547;-77
2023/04/06 11:47:29;;;;;;;2.45;2.25;;;22.20;34.00;;;;;;5038669;28;20274;-77
2023/04/06 11:49:59;;;;;;;2.88;2.65;;;22.20;33.90;;;;;;5040226;28;20231;-77
2023/04/06 11:52:28;;;;;;;2.67;2.45;;;22.20;34.10;;;;;;5039067;28;20211;-77
2023/04/06 11:54:56;;;;;;;2.53;2.38;;;22.20;34.00;;;;;;5038342;28;20214;-77
2023/04/06 11:57:24;;;;;;;3.42;2.50;;;22.20;33.90;;;;;;5038480;28;20252;-77
2023/04/06 11:59:51;;;;;;;2.83;2.63;;;22.20;33.90;;;;;;5039001;28;20217;-77
2023/04/06 12:02:20;;;;;;;2.60;2.40;;;22.20;33.90;;;;;;5038562;28;20196;-77
2023/04/06 12:04:47;;;;;;;2.90;2.70;;;22.20;33.70;;;;;;5038604;28;20205;-77
2023/04/06 12:07:16;;;;;;;2.60;2.40;;;22.20;34.40;;;;;;5039162;28;20223;-77
2023/04/06 12:09:43;;;;;;;2.53;2.33;;;22.20;33.90;;;;;;5031887;28;20199;-77
2023/04/06 12:12:11;;;;;;;2.65;2.45;;;22.20;33.80;;;;;;5057094;28;20223;-77
2023/04/06 12:14:38;;;;;;;2.50;2.30;;;22.20;34.00;;;;;;5038670;28;20231;-77
2023/04/06 12:17:05;;;;;;;2.63;2.42;;;22.20;34.00;;;;;;5038818;28;20219;-77
2023/04/06 12:19:34;;;;;;;2.55;2.35;;;22.20;34.10;;;;;;5038226;28;20585;-77
2023/04/06 12:22:02;;;;;;;2.60;2.40;;;22.20;34.00;;;;;;5044587;22;20255;-78
2023/04/06 12:24:29;;;;;;;2.58;2.38;;;22.20;34.10;;;;;;5018169;28;20200;-78
2023/04/06 12:26:56;;;;;;;2.60;2.40;;;22.10;34.20;;;;;;5017810;28;20226;-77
2023/04/06 12:29:25;;;;;;;2.45;2.25;;;22.10;34.30;;;;;;5018033;28;20617;-77
2023/04/06 12:31:52;;;;;;;2.60;2.40;;;22.10;34.10;;;;;;5017878;28;20200;-77
2023/04/06 12:34:19;;;;;;;2.72;2.38;;;22.10;34.20;;;;;;5017831;28;20231;-77
2023/04/06 12:36:48;;;;;;;2.40;2.20;;;22.00;34.10;;;;;;5017729;28;20251;-77
2023/04/06 12:39:15;;;;;;;2.38;2.17;;;22.00;34.40;;;;;;5017766;28;20348;-77
2023/04/06 12:41:43;;;;;;;2.47;2.28;;;22.10;34.50;;;;;;5017585;28;20663;-77
2023/04/06 12:44:11;;;;;;;2.40;2.20;;;22.10;34.50;;;;;;5017634;28;20646;-77
2023/04/06 12:46:38;;;;;;;2.03;1.85;;;22.20;34.50;;;;;;5017171;28;20220;-77
2023/04/06 12:49:05;;;;;;;2.47;2.28;;;22.10;34.50;;;;;;5017414;28;20196;-77
2023/04/06 12:54:34;;;;;;;3.17;2.40;;;22.20;34.20;;;;;;5282776;22;20460;-79
2023/04/06 12:57:01;;;;;;;2.50;2.30;;;22.20;33.90;;;;;;5034632;28;20263;-79
2023/04/06 12:59:34;;;;;;;2.70;2.50;;;22.20;34.20;;;;;;5019361;28;20235;-79
2023/04/06 13:02:01;;;;;;;2.30;2.20;;;22.20;33.90;;;;;;5018385;28;20204;-79
2023/04/06 13:04:29;;;;;;;2.63;2.20;;;22.20;34.20;;;;;;5017766;28;20278;-79
2023/04/06 13:06:56;;;;;;;2.53;2.33;;;22.30;34.10;;;;;;5129939;22;20275;-77